Ballarat, Australia
Current Conditions -  °F | °C
As of 3:30 PM on Sunday 21 Dec 2014 (Local Time) from YMAV Reporting Station
Clear Clear  
Wind Chill: 86°   Ceiling: Unl
Heat Index: 86°   Visibility: 6mi
Dew Point: 54°   Wind: 16mph
Humidity: 33%   Direction: 110°ESE
Pressure: 29.85"   Gusts: NA
Location:  37.56°S, 143.86°E
Report Text: YMAV 210430Z AUTO 11014KT 9999 // NCD 30/12 Q1011
Loading
Personal Weather Stations






























Interactive Weather Map New forecast layout! Learn more

10-Day Weather Forecast

Advertisements
Track Severe Weather on mobile